»·PEaware :: N541DL KBFL-KSMX

N541DL :: KBFL-KSMX

FLIGHT INFORMATION

Flight Status: Arrived
Operator: Privately registered:
United States
More flights under this callsign
Pilot: Wes C. (14639)
Aircraft: PILATUS PC-12 EAGLE
(PC12)
More flights by this aircraft type
Origin: KBFL Meadows
United States
Destination: KSMX Santa Maria Pub/Capt Hancock
United States
More flights between these airports :: More routes between these airports
Route: +STIGR V183 RZS V12 GVO V27 AFOXY
File this flight plan on PilotEdge
Remarks:
Altitude:
(Current/Filed)
10,000ft
Speed:
(Current/Filed)
210kts
Departed: 19-Sep-18 07:33 AM
Arrived: 19-Sep-18 08:28 AM
Distance/Time
Traveled:
75nm/0:54
Distance/Time
To Go:
Arrived

Flight Plot

Page will automatically refresh every two minutes.

Flight plan parsing failed; only flown route is shown


Map Options




Map Legend


Flown Route
Filed Route
Departure Airport
Arrival Airport
Navaid (VOR, NDB)
Fix

Horizontal Profiles

Position Reports

Time Latitude Longitude Heading Altitude Ground
Speed
19-Sep-18 07:12 35.429382 -119.046086 226 492ft 0kts
19-Sep-18 07:13 35.429382 -119.046086 226 492ft 0kts
19-Sep-18 07:14 35.429382 -119.046086 226 492ft 0kts
19-Sep-18 07:15 35.429382 -119.046086 226 492ft 0kts
19-Sep-18 07:16 35.429382 -119.046086 226 492ft 0kts
19-Sep-18 07:17 35.429382 -119.046086 226 492ft 0kts
19-Sep-18 07:18 35.429382 -119.046086 226 492ft 0kts
19-Sep-18 07:19 35.429382 -119.046086 226 492ft 0kts
19-Sep-18 07:20 35.429382 -119.046086 226 492ft 0kts
19-Sep-18 07:21 35.429382 -119.046086 226 492ft 0kts
19-Sep-18 07:22 35.429382 -119.046086 226 492ft 0kts
19-Sep-18 07:23 35.429382 -119.046086 226 492ft 0kts
19-Sep-18 07:24 35.429382 -119.046086 226 492ft 0kts
19-Sep-18 07:25 35.429382 -119.046086 226 492ft 0kts
19-Sep-18 07:26 35.429382 -119.046086 226 492ft 0kts
19-Sep-18 07:27 35.429382 -119.046086 226 492ft 0kts
19-Sep-18 07:28 35.429367 -119.046105 225 492ft 2kts
19-Sep-18 07:29 35.428446 -119.047031 202 483ft 0kts
19-Sep-18 07:30 35.428697 -119.047782 315 482ft 5kts
19-Sep-18 07:31 35.429138 -119.048090 150 483ft 9kts
19-Sep-18 07:32 35.425594 -119.044695 245 474ft 8kts
19-Sep-18 07:33 35.425583 -119.044726 247 474ft 0kts
19-Sep-18 07:34 35.425583 -119.044726 247 474ft 0kts
19-Sep-18 07:35 35.432123 -119.054150 313 501ft 112kts
19-Sep-18 07:36 35.457819 -119.086396 313 1520ft 159kts
19-Sep-18 07:37 35.491765 -119.128249 314 2635ft 187kts
19-Sep-18 07:38 35.529050 -119.173164 314 3921ft 193kts
19-Sep-18 07:39 35.567961 -119.218894 314 5222ft 195kts
19-Sep-18 07:40 35.608166 -119.265258 314 5999ft 216kts
19-Sep-18 07:41 35.653954 -119.318376 314 6000ft 238kts
19-Sep-18 07:42 35.648485 -119.374284 201 6933ft 203kts
19-Sep-18 07:43 35.599064 -119.381898 148 8201ft 194kts
19-Sep-18 07:44 35.555003 -119.347647 152 9463ft 191kts
19-Sep-18 07:45 35.506169 -119.313403 152 10004ft 224kts
19-Sep-18 07:46 35.448786 -119.273775 152 9998ft 248kts
19-Sep-18 07:47 35.387964 -119.231845 152 9993ft 254kts
19-Sep-18 07:48 35.323966 -119.207225 207 9998ft 245kts
19-Sep-18 07:49 35.265384 -119.250149 211 9991ft 246kts
19-Sep-18 07:50 35.205834 -119.291784 211 9991ft 247kts
19-Sep-18 07:51 35.146937 -119.332689 211 9991ft 247kts
19-Sep-18 07:52 35.088430 -119.373245 211 9991ft 247kts
19-Sep-18 07:53 35.028639 -119.414622 211 9990ft 247kts
19-Sep-18 07:54 34.967658 -119.456729 211 9973ft 255kts
19-Sep-18 07:55 34.905679 -119.499449 211 9946ft 257kts
19-Sep-18 07:56 34.843891 -119.541987 211 9929ft 255kts
19-Sep-18 07:57 34.782331 -119.584292 211 9932ft 254kts
19-Sep-18 07:59 34.662783 -119.666216 211 9927ft 254kts
19-Sep-18 08:00 34.601407 -119.708170 211 9927ft 254kts
19-Sep-18 08:01 34.542030 -119.748721 211 9558ft 257kts
19-Sep-18 08:02 34.511131 -119.813562 278 8939ft 236kts
19-Sep-18 08:03 34.517389 -119.888319 276 8945ft 221kts
19-Sep-18 08:04 34.522308 -119.959657 276 8444ft 232kts
19-Sep-18 08:05 34.527412 -120.035290 276 7389ft 245kts
19-Sep-18 08:06 34.544575 -120.105727 324 6289ft 244kts
19-Sep-18 08:07 34.591026 -120.145888 323 5982ft 234kts
19-Sep-18 08:08 34.631760 -120.189237 313 5991ft 235kts
19-Sep-18 08:09 34.668879 -120.238091 312 5991ft 236kts
19-Sep-18 08:10 34.710688 -120.293232 313 5992ft 236kts
19-Sep-18 08:11 34.748750 -120.343535 313 5995ft 236kts
19-Sep-18 08:12 34.788438 -120.396029 313 5998ft 236kts
19-Sep-18 08:13 34.827312 -120.447436 313 5999ft 236kts
19-Sep-18 08:14 34.864771 -120.496906 313 6000ft 236kts
19-Sep-18 08:15 34.904512 -120.549268 313 6000ft 237kts
19-Sep-18 08:16 34.945765 -120.603583 313 6000ft 236kts
19-Sep-18 08:17 34.987748 -120.658814 313 5999ft 235kts
19-Sep-18 08:18 35.030595 -120.714963 313 5999ft 234kts
19-Sep-18 08:19 35.072826 -120.770098 313 5999ft 233kts
19-Sep-18 08:20 35.115707 -120.820445 343 5994ft 222kts
19-Sep-18 08:21 35.140755 -120.777430 109 5187ft 237kts
19-Sep-18 08:22 35.115039 -120.713768 131 4002ft 197kts
19-Sep-18 08:23 35.084825 -120.675188 135 3523ft 159kts
19-Sep-18 08:24 35.055129 -120.640719 135 2690ft 161kts
19-Sep-18 08:25 35.023939 -120.602711 134 2021ft 172kts
19-Sep-18 08:26 34.993072 -120.566454 135 1998ft 152kts
19-Sep-18 08:27 34.965116 -120.531654 132 1932ft 147kts
19-Sep-18 08:28 34.938173 -120.500190 133 1217ft 136kts
19-Sep-18 08:29 34.916611 -120.474075 136 584ft 107kts
19-Sep-18 08:30 34.899633 -120.453912 136 239ft 24kts
19-Sep-18 08:31 34.898885 -120.449913 88 246ft 12kts
19-Sep-18 08:32 34.899399 -120.449089 229 246ft 0kts
19-Sep-18 08:33 34.899399 -120.449089 229 246ft 0kts
19-Sep-18 08:34 34.899399 -120.449089 229 246ft 0kts
19-Sep-18 08:35 34.899399 -120.449089 229 246ft 0kts
19-Sep-18 08:36 34.899399 -120.449089 229 246ft 0kts
19-Sep-18 08:37 34.899399 -120.449089 229 246ft 0kts
19-Sep-18 08:38 34.899399 -120.449089 229 246ft 0kts
19-Sep-18 08:39 34.899399 -120.449089 229 246ft 0kts
19-Sep-18 08:40 34.899399 -120.449089 229 246ft 0kts
19-Sep-18 08:41 34.899399 -120.449089 229 246ft 0kts
19-Sep-18 08:42 34.899399 -120.449089 229 246ft 0kts
19-Sep-18 08:43 34.899399 -120.449089 229 246ft 0kts
19-Sep-18 08:44 34.899399 -120.449089 229 246ft 0kts

Navigation Log

Ident Type
Flight plan parsing failed, navigation log unavailable